Time;durP1;ratioP1;P1;durP2;ratioP2;P2;SDS_P1;SDS_P2;PMS_P1;PMS_P2;Temp;Humidity;BMP_temperature;BMP_pressure;BME280_temperature;BME280_humidity;BME280_pressure;Samples;Min_cycle;Max_cycle;Signal;HPM_P1;HPM_P2
2023/01/05 00:00:55;;;;;;;1.03;1.00;;;8.30;99.90;;;;;;5074003;28;20284;-52
2023/01/05 00:03:22;;;;;;;1.33;1.10;;;8.30;99.90;;;;;;5071227;28;20291;-51
2023/01/05 00:05:49;;;;;;;1.30;1.20;;;8.30;99.90;;;;;;5068567;28;20261;-52
2023/01/05 00:08:16;;;;;;;1.17;0.97;;;8.30;99.90;;;;;;5073456;28;20276;-51
2023/01/05 00:24:28;;;;;;;0.90;0.90;;;8.20;99.90;;;;;;5072160;28;20232;-51
2023/01/05 00:26:55;;;;;;;0.70;0.70;;;8.20;99.90;;;;;;5075472;28;20672;-51
2023/01/05 00:29:23;;;;;;;0.60;0.60;;;8.20;99.90;;;;;;5071586;28;20222;-51
2023/01/05 00:31:50;;;;;;;0.97;0.70;;;8.20;99.90;;;;;;5071039;28;20207;-52
2023/01/05 00:34:17;;;;;;;0.50;0.50;;;8.10;99.90;;;;;;5069711;28;20214;-52
2023/01/05 00:36:44;;;;;;;0.70;0.70;;;8.10;99.90;;;;;;5073022;28;20570;-52
2023/01/05 00:39:11;;;;;;;0.60;0.60;;;8.20;99.90;;;;;;5071044;28;20201;-52
2023/01/05 00:41:38;;;;;;;0.60;0.60;;;8.20;99.90;;;;;;5069292;28;20206;-51
2023/01/05 00:44:06;;;;;;;0.50;0.50;;;8.20;99.90;;;;;;5069921;28;20223;-52
2023/01/05 00:46:34;;;;;;;0.50;0.50;;;8.10;99.90;;;;;;5070034;28;20210;-51
2023/01/05 00:49:01;;;;;;;1.30;0.87;;;8.10;99.90;;;;;;5071202;28;20231;-51
2023/01/05 00:51:28;;;;;;;0.90;0.90;;;8.20;99.90;;;;;;5073887;28;20224;-52
2023/01/05 00:53:55;;;;;;;0.80;0.80;;;8.10;99.90;;;;;;5071178;28;20199;-51
2023/01/05 00:56:22;;;;;;;0.50;0.50;;;8.20;99.90;;;;;;5072861;28;20659;-51
2023/01/05 00:58:53;;;;;;;1.63;0.50;;;8.30;99.90;;;;;;5071696;28;20618;-51
2023/01/05 01:01:20;;;;;;;0.53;0.53;;;8.40;99.90;;;;;;5069768;28;20226;-52
2023/01/05 01:03:49;;;;;;;0.50;0.50;;;8.40;99.90;;;;;;5053858;28;20200;-51
2023/01/05 01:06:16;;;;;;;1.37;1.13;;;8.40;99.90;;;;;;5054586;28;20196;-51
2023/01/05 01:08:43;;;;;;;0.30;0.30;;;8.50;99.90;;;;;;5070457;28;20210;-51
2023/01/05 01:11:11;;;;;;;0.60;0.60;;;8.50;99.90;;;;;;5051079;28;20285;-53
2023/01/05 01:13:38;;;;;;;1.07;0.60;;;8.50;99.90;;;;;;5072914;28;20252;-52
2023/01/05 01:16:07;;;;;;;0.40;0.40;;;8.50;99.90;;;;;;5069873;28;20289;-51
2023/01/05 01:18:34;;;;;;;0.43;0.37;;;8.50;99.90;;;;;;5071213;28;20211;-51
2023/01/05 01:21:02;;;;;;;0.30;0.30;;;8.60;99.90;;;;;;5050934;28;20230;-52
2023/01/05 01:23:29;;;;;;;1.00;0.53;;;8.50;99.90;;;;;;5051146;28;20211;-51
2023/01/05 01:25:56;;;;;;;0.50;0.50;;;8.50;99.90;;;;;;5053992;28;20267;-52
2023/01/05 01:28:24;;;;;;;0.57;0.40;;;8.60;99.90;;;;;;5072314;28;20598;-51
2023/01/05 01:30:51;;;;;;;2.23;0.40;;;8.60;99.90;;;;;;5070447;28;20221;-52
2023/01/05 01:33:18;;;;;;;1.23;0.30;;;8.60;99.90;;;;;;5070846;28;20205;-51
2023/01/05 01:35:45;;;;;;;0.43;0.43;;;8.60;99.90;;;;;;5070267;28;20211;-52
2023/01/05 01:38:13;;;;;;;0.30;0.30;;;8.60;99.90;;;;;;5070869;28;20591;-51
2023/01/05 01:40:40;;;;;;;0.30;0.30;;;8.60;99.90;;;;;;5070415;28;20573;-51
2023/01/05 01:43:13;;;;;;;0.30;0.30;;;8.60;99.90;;;;;;5063769;28;20260;-52
2023/01/05 01:45:40;;;;;;;0.30;0.30;;;8.60;99.90;;;;;;5070410;28;20203;-54
2023/01/05 01:48:10;;;;;;;0.30;0.30;;;8.60;99.90;;;;;;5070444;28;20217;-51
2023/01/05 01:50:43;;;;;;;2.80;0.40;;;8.70;99.90;;;;;;5070317;28;20227;-50
2023/01/05 01:53:18;;;;;;;0.30;0.20;;;8.70;99.90;;;;;;5069499;28;20199;-51
2023/01/05 01:55:46;;;;;;;0.50;0.37;;;8.70;99.90;;;;;;5061719;28;20199;-53
2023/01/05 01:58:17;;;;;;;0.30;0.30;;;8.70;99.90;;;;;;5070335;28;20209;-51
2023/01/05 02:00:45;;;;;;;0.10;0.10;;;8.80;99.90;;;;;;5070276;28;20219;-51
2023/01/05 02:03:12;;;;;;;0.73;0.20;;;8.80;99.90;;;;;;5070315;28;20203;-51
2023/01/05 02:05:39;;;;;;;0.30;0.30;;;8.80;99.90;;;;;;5074386;28;20308;-52
2023/01/05 02:08:11;;;;;;;0.30;0.30;;;8.90;99.90;;;;;;5068098;28;20199;-51
2023/01/05 02:10:57;;;;;;;0.20;0.20;;;9.00;99.90;;;;;;5068495;28;20314;-52
2023/01/05 02:13:37;;;;;;;0.30;0.30;;;8.90;99.90;;;;;;5050234;28;20616;-51
2023/01/05 02:16:13;;;;;;;0.70;0.20;;;8.90;99.90;;;;;;5051847;28;20264;-51
2023/01/05 02:18:56;;;;;;;1.70;0.40;;;8.90;99.90;;;;;;5065729;28;20256;-52
2023/01/05 02:21:36;;;;;;;1.30;0.30;;;8.90;99.90;;;;;;5065550;28;20223;-51
2023/01/05 02:24:35;;;;;;;0.20;0.20;;;8.80;99.90;;;;;;5070155;28;20550;-51
2023/01/05 02:27:41;;;;;;;0.30;0.30;;;8.90;99.90;;;;;;5071256;28;20200;-53
2023/01/05 02:30:46;;;;;;;0.30;0.30;;;8.80;99.90;;;;;;5033701;28;20589;-51
2023/01/05 02:33:24;;;;;;;0.73;0.20;;;8.70;99.90;;;;;;5061020;28;20711;-51
2023/01/05 02:35:57;;;;;;;0.30;0.30;;;8.60;99.90;;;;;;5069828;28;20209;-51
2023/01/05 02:38:33;;;;;;;0.40;0.30;;;8.60;99.90;;;;;;5070026;28;20682;-51
2023/01/05 02:41:07;;;;;;;1.13;0.43;;;8.70;99.90;;;;;;5077465;28;20301;-52
2023/01/05 02:43:35;;;;;;;0.20;0.20;;;8.70;99.90;;;;;;5056730;28;20202;-51
2023/01/05 02:46:03;;;;;;;1.33;0.40;;;8.80;99.90;;;;;;5058625;28;20289;-51
2023/01/05 02:48:32;;;;;;;0.40;0.30;;;8.70;99.90;;;;;;5072621;28;20203;-51
2023/01/05 02:51:04;;;;;;;0.30;0.30;;;8.70;99.90;;;;;;5064459;28;20298;-52
2023/01/05 02:53:33;;;;;;;0.30;0.30;;;8.70;99.90;;;;;;5076469;28;20641;-53
2023/01/05 02:56:06;;;;;;;0.30;0.30;;;8.70;99.90;;;;;;5073368;28;20234;-50
2023/01/05 02:58:39;;;;;;;0.23;0.23;;;8.70;99.90;;;;;;5073595;28;20752;-52
2023/01/05 03:01:10;;;;;;;0.43;0.40;;;8.60;99.90;;;;;;5073545;28;20850;-51
2023/01/05 03:03:40;;;;;;;0.20;0.20;;;8.50;99.90;;;;;;5071758;28;20199;-52
2023/01/05 03:06:13;;;;;;;0.40;0.40;;;8.50;99.90;;;;;;5068284;28;20265;-52
2023/01/05 03:08:47;;;;;;;0.60;0.30;;;8.50;99.90;;;;;;5061983;28;20652;-51
2023/01/05 03:14:05;;;;;;;0.30;0.30;;;8.50;99.90;;;;;;5073371;28;20518;-52
2023/01/05 03:16:36;;;;;;;0.30;0.30;;;8.50;99.90;;;;;;5072977;28;20211;-53
2023/01/05 03:35:55;;;;;;;0.30;0.30;;;8.50;99.90;;;;;;5052878;28;20277;-51
2023/01/05 03:38:29;;;;;;;0.60;0.50;;;8.50;99.90;;;;;;5053098;28;20203;-51
2023/01/05 03:41:01;;;;;;;1.77;1.67;;;8.60;99.90;;;;;;5070091;28;20229;-52
2023/01/05 03:43:28;;;;;;;0.40;0.40;;;8.60;99.90;;;;;;5068914;28;20198;-51
2023/01/05 03:45:57;;;;;;;3.20;0.50;;;8.60;99.90;;;;;;5052706;28;20254;-52
2023/01/05 03:48:28;;;;;;;0.63;0.40;;;8.60;99.90;;;;;;5052705;28;20253;-50
2023/01/05 03:50:55;;;;;;;0.70;0.50;;;8.70;99.90;;;;;;5051883;28;20696;-51
2023/01/05 03:53:22;;;;;;;0.73;0.40;;;8.60;99.90;;;;;;5053115;28;20672;-51
2023/01/05 03:55:49;;;;;;;0.50;0.50;;;8.60;99.90;;;;;;5074837;28;20223;-51
2023/01/05 03:58:16;;;;;;;0.50;0.50;;;8.60;99.90;;;;;;5066332;28;20198;-52
2023/01/05 04:00:43;;;;;;;1.53;0.30;;;8.60;99.90;;;;;;5072293;28;20214;-51
2023/01/05 04:03:10;;;;;;;1.10;0.60;;;8.60;99.90;;;;;;5066232;28;20206;-53
2023/01/05 04:05:38;;;;;;;0.40;0.40;;;8.50;99.90;;;;;;5069018;28;20202;-52
2023/01/05 04:08:06;;;;;;;0.57;0.50;;;8.50;99.90;;;;;;5070937;28;20202;-52
2023/01/05 04:10:33;;;;;;;0.50;0.33;;;8.40;99.90;;;;;;5072646;28;20235;-51
2023/01/05 04:13:00;;;;;;;0.37;0.37;;;8.40;99.90;;;;;;5068105;28;20198;-53
2023/01/05 04:15:27;;;;;;;1.83;0.30;;;8.50;99.90;;;;;;5061814;28;20233;-52
2023/01/05 04:17:54;;;;;;;0.20;0.20;;;8.40;99.90;;;;;;5071924;28;20207;-53
2023/01/05 04:20:21;;;;;;;0.40;0.30;;;8.40;99.90;;;;;;5072009;28;20708;-51
2023/01/05 04:22:49;;;;;;;1.53;0.63;;;8.40;99.90;;;;;;5068528;28;20207;-52
2023/01/05 04:25:17;;;;;;;0.30;0.30;;;8.30;99.90;;;;;;5077265;28;20193;-52
2023/01/05 04:27:44;;;;;;;0.40;0.40;;;8.30;99.90;;;;;;5071714;28;20218;-52
2023/01/05 04:30:11;;;;;;;0.40;0.40;;;8.50;99.90;;;;;;5071394;28;20230;-52
2023/01/05 04:32:38;;;;;;;0.53;0.37;;;8.50;99.90;;;;;;5063300;28;20726;-51
2023/01/05 04:35:06;;;;;;;1.03;0.53;;;8.40;99.90;;;;;;5076076;28;20214;-52
2023/01/05 04:37:33;;;;;;;0.30;0.30;;;8.40;99.90;;;;;;5074522;28;20201;-53
2023/01/05 04:40:01;;;;;;;0.80;0.27;;;8.40;99.90;;;;;;5051705;28;20250;-52
2023/01/05 04:42:28;;;;;;;0.30;0.30;;;8.50;99.90;;;;;;5051873;28;20205;-51
2023/01/05 04:44:55;;;;;;;0.30;0.30;;;8.50;99.90;;;;;;5051733;28;20210;-52
2023/01/05 04:47:22;;;;;;;0.43;0.43;;;8.50;99.90;;;;;;5057570;28;20262;-51
2023/01/05 04:49:49;;;;;;;0.70;0.47;;;8.50;99.90;;;;;;5076879;28;20228;-52
2023/01/05 04:52:16;;;;;;;0.30;0.30;;;8.50;99.90;;;;;;5071340;28;20203;-52
2023/01/05 04:54:43;;;;;;;0.30;0.30;;;8.50;99.90;;;;;;5071493;28;20228;-52
2023/01/05 04:57:12;;;;;;;0.97;0.40;;;8.50;99.90;;;;;;5071107;28;20203;-51
2023/01/05 04:59:39;;;;;;;0.47;0.47;;;8.40;99.90;;;;;;5071266;28;20227;-52
2023/01/05 05:02:06;;;;;;;0.27;0.27;;;8.40;99.90;;;;;;5070778;28;20202;-51
2023/01/05 05:04:33;;;;;;;0.30;0.30;;;8.40;99.90;;;;;;5069631;28;20672;-52
2023/01/05 05:07:00;;;;;;;1.67;0.40;;;8.40;99.90;;;;;;5059181;28;20542;-52
2023/01/05 05:09:27;;;;;;;0.37;0.30;;;8.50;99.90;;;;;;5051224;28;20208;-52
2023/01/05 05:11:54;;;;;;;1.30;0.30;;;8.50;99.90;;;;;;5051092;28;20638;-52
2023/01/05 05:14:22;;;;;;;0.30;0.30;;;8.50;99.90;;;;;;5065475;28;20203;-52
2023/01/05 05:16:49;;;;;;;0.37;0.37;;;8.60;99.90;;;;;;5060189;28;20200;-51
2023/01/05 05:19:16;;;;;;;0.37;0.30;;;8.70;99.90;;;;;;5057890;28;20200;-52
2023/01/05 05:21:43;;;;;;;0.53;0.20;;;8.70;99.90;;;;;;5071999;28;20642;-51
2023/01/05 05:24:10;;;;;;;0.40;0.40;;;8.80;99.90;;;;;;5057149;28;20203;-52
2023/01/05 05:26:37;;;;;;;1.10;0.40;;;8.80;99.90;;;;;;5068649;28;20726;-51
2023/01/05 05:29:04;;;;;;;2.47;0.40;;;8.80;99.90;;;;;;5062080;28;20261;-52
2023/01/05 05:31:32;;;;;;;0.20;0.20;;;8.80;99.90;;;;;;5070882;28;20230;-51
2023/01/05 05:33:59;;;;;;;0.30;0.30;;;8.80;99.90;;;;;;5061122;28;20203;-52
2023/01/05 05:36:26;;;;;;;0.27;0.27;;;8.80;99.90;;;;;;5068384;28;20201;-51
2023/01/05 05:38:55;;;;;;;0.30;0.30;;;8.80;99.90;;;;;;5069098;28;20213;-52
2023/01/05 05:41:22;;;;;;;0.27;0.23;;;8.80;99.90;;;;;;5070579;28;20316;-52
2023/01/05 05:43:49;;;;;;;0.50;0.30;;;8.80;99.90;;;;;;5070612;28;20641;-51
2023/01/05 05:46:16;;;;;;;0.20;0.20;;;8.70;99.90;;;;;;5070543;28;20202;-52
2023/01/05 05:48:44;;;;;;;0.60;0.20;;;8.80;99.90;;;;;;5070864;28;20211;-52
2023/01/05 05:51:11;;;;;;;1.50;0.30;;;8.70;99.90;;;;;;5061074;28;20213;-51
2023/01/05 05:53:38;;;;;;;0.20;0.20;;;8.70;99.90;;;;;;5070468;28;20621;-52
2023/01/05 05:56:06;;;;;;;0.30;0.30;;;8.70;99.90;;;;;;5070171;28;20223;-52
2023/01/05 05:58:33;;;;;;;1.17;0.30;;;8.70;99.90;;;;;;5070478;28;20203;-51
2023/01/05 06:01:00;;;;;;;0.10;0.10;;;8.70;99.90;;;;;;5070610;28;20229;-51
2023/01/05 06:03:27;;;;;;;4.00;0.90;;;8.70;99.90;;;;;;5070512;28;20227;-51
2023/01/05 06:05:56;;;;;;;0.30;0.30;;;8.70;99.90;;;;;;5066400;28;20271;-51
2023/01/05 06:08:23;;;;;;;1.17;0.50;;;8.80;99.90;;;;;;5064754;28;20649;-51
2023/01/05 06:10:50;;;;;;;1.13;0.20;;;8.70;99.90;;;;;;5059154;28;20285;-52
2023/01/05 06:13:17;;;;;;;0.47;0.30;;;8.70;99.90;;;;;;5057402;28;20216;-52
2023/01/05 06:15:44;;;;;;;1.40;0.33;;;8.70;99.90;;;;;;5073201;28;20691;-53
2023/01/05 06:18:11;;;;;;;1.13;0.30;;;8.70;99.90;;;;;;5074262;28;20203;-52
2023/01/05 06:20:38;;;;;;;0.30;0.30;;;8.80;99.90;;;;;;5073314;28;20222;-51
2023/01/05 06:23:07;;;;;;;0.60;0.30;;;8.80;99.90;;;;;;5073067;28;20202;-52
2023/01/05 06:25:34;;;;;;;0.37;0.37;;;8.70;99.90;;;;;;5057455;28;20250;-51
2023/01/05 06:28:01;;;;;;;2.47;0.43;;;8.70;99.90;;;;;;5054093;28;20623;-51
2023/01/05 06:30:29;;;;;;;0.40;0.40;;;8.70;99.90;;;;;;5062275;28;20842;-52
2023/01/05 06:32:56;;;;;;;0.73;0.40;;;8.70;99.90;;;;;;5074305;28;20215;-52
2023/01/05 06:35:23;;;;;;;0.30;0.30;;;8.70;99.90;;;;;;5075344;28;20708;-51
2023/01/05 06:37:50;;;;;;;0.50;0.50;;;8.80;99.90;;;;;;5069462;28;20637;-52
2023/01/05 06:40:18;;;;;;;1.17;0.40;;;8.90;99.90;;;;;;5068593;28;20215;-52
2023/01/05 06:42:45;;;;;;;0.40;0.37;;;9.00;99.90;;;;;;5074040;28;20205;-51
2023/01/05 06:45:14;;;;;;;0.60;0.60;;;8.90;99.90;;;;;;5073932;28;20553;-52
2023/01/05 06:47:42;;;;;;;0.60;0.50;;;8.80;99.90;;;;;;5073599;28;20216;-52
2023/01/05 06:50:10;;;;;;;0.30;0.30;;;8.80;99.90;;;;;;5073938;28;20228;-52
2023/01/05 06:52:38;;;;;;;0.50;0.50;;;8.80;99.90;;;;;;5074035;28;20214;-51
2023/01/05 06:55:07;;;;;;;1.07;0.30;;;8.80;99.90;;;;;;5062971;28;20204;-52
2023/01/05 06:57:36;;;;;;;0.50;0.40;;;8.80;99.90;;;;;;5070460;28;20246;-51
2023/01/05 07:00:05;;;;;;;0.40;0.40;;;8.80;99.90;;;;;;5073590;28;20309;-50
2023/01/05 07:02:32;;;;;;;1.37;0.33;;;8.80;99.90;;;;;;5073504;28;20207;-50
2023/01/05 07:04:59;;;;;;;0.40;0.40;;;8.80;99.90;;;;;;5073331;28;20648;-51
2023/01/05 07:07:26;;;;;;;1.43;0.60;;;8.80;99.90;;;;;;5073261;28;20213;-52
2023/01/05 07:09:53;;;;;;;2.20;0.60;;;8.70;99.90;;;;;;5070856;28;20219;-51
2023/01/05 07:12:21;;;;;;;1.77;0.20;;;8.70;99.90;;;;;;5066368;28;20308;-52
2023/01/05 07:14:49;;;;;;;1.03;0.30;;;8.70;99.90;;;;;;5053357;28;20204;-52
2023/01/05 07:17:17;;;;;;;0.53;0.30;;;8.80;99.90;;;;;;5053152;28;20250;-51
2023/01/05 07:19:44;;;;;;;3.87;0.40;;;8.80;99.90;;;;;;5053580;28;20225;-53
2023/01/05 07:22:11;;;;;;;0.40;0.40;;;8.80;99.90;;;;;;5067419;28;20669;-51
2023/01/05 07:24:38;;;;;;;0.50;0.50;;;8.80;99.90;;;;;;5073204;28;20310;-52
2023/01/05 07:27:05;;;;;;;0.70;0.50;;;8.80;99.90;;;;;;5061719;28;20205;-50
2023/01/05 07:29:32;;;;;;;0.37;0.37;;;8.90;99.90;;;;;;5072734;28;20219;-50
2023/01/05 07:32:05;;;;;;;0.43;0.40;;;8.80;99.90;;;;;;5072995;28;20588;-50
2023/01/05 07:34:32;;;;;;;1.40;1.30;;;8.90;99.90;;;;;;5073147;28;20792;-53
2023/01/05 07:36:59;;;;;;;1.43;1.33;;;9.00;99.90;;;;;;5073065;28;20660;-52
2023/01/05 07:39:26;;;;;;;3.67;2.10;;;9.00;99.90;;;;;;5072834;28;20688;-51
2023/01/05 07:41:53;;;;;;;8.57;5.43;;;9.10;99.90;;;;;;5068029;28;20202;-51
2023/01/05 07:44:20;;;;;;;9.53;6.30;;;9.00;99.90;;;;;;5062607;28;20197;-51
2023/01/05 07:46:47;;;;;;;7.80;4.73;;;9.00;99.90;;;;;;5072545;28;20195;-49
2023/01/05 07:49:16;;;;;;;3.73;2.93;;;9.00;99.90;;;;;;5072796;28;20261;-52
2023/01/05 07:51:43;;;;;;;3.50;3.20;;;9.00;99.90;;;;;;5073000;28;20222;-51
2023/01/05 07:54:10;;;;;;;4.47;3.93;;;9.00;99.90;;;;;;5071906;28;20208;-51
2023/01/05 07:56:37;;;;;;;2.73;2.00;;;9.00;99.90;;;;;;5075691;28;20277;-52
2023/01/05 07:59:04;;;;;;;2.57;2.00;;;9.00;99.90;;;;;;5066290;28;20639;-52
2023/01/05 08:01:31;;;;;;;2.60;2.40;;;9.00;99.90;;;;;;5069170;28;20260;-54
2023/01/05 08:03:58;;;;;;;1.87;1.63;;;9.00;99.90;;;;;;5074673;28;20201;-52
2023/01/05 08:06:26;;;;;;;3.50;1.00;;;9.00;99.90;;;;;;5081515;28;20215;-51
2023/01/05 08:08:55;;;;;;;1.27;0.57;;;9.10;99.90;;;;;;5077179;28;20195;-52
2023/01/05 08:11:22;;;;;;;0.80;0.80;;;9.10;99.90;;;;;;5074946;28;20284;-50
2023/01/05 08:14:01;;;;;;;0.80;0.80;;;9.10;99.90;;;;;;5069493;28;20199;-52
2023/01/05 08:16:30;;;;;;;1.13;0.70;;;9.10;99.90;;;;;;5067360;28;20359;-51
2023/01/05 08:18:57;;;;;;;0.57;0.57;;;9.10;99.90;;;;;;5075231;28;20279;-53
2023/01/05 08:21:25;;;;;;;0.50;0.50;;;9.20;99.90;;;;;;5076280;28;20217;-52
2023/01/05 08:23:53;;;;;;;1.23;0.60;;;9.20;99.90;;;;;;5069998;28;20298;-50
2023/01/05 08:26:22;;;;;;;2.93;0.70;;;9.20;99.90;;;;;;5075321;28;20621;-53
2023/01/05 08:28:51;;;;;;;2.00;0.50;;;9.30;99.90;;;;;;5071488;28;20291;-51
2023/01/05 08:31:21;;;;;;;0.47;0.47;;;9.30;99.90;;;;;;5073715;28;20678;-51
2023/01/05 08:33:48;;;;;;;0.70;0.50;;;9.30;99.90;;;;;;5079945;28;20199;-51
2023/01/05 08:36:18;;;;;;;1.53;0.60;;;9.30;99.90;;;;;;5065136;28;20197;-51
2023/01/05 08:38:47;;;;;;;1.13;0.57;;;9.30;99.90;;;;;;5070048;28;20654;-49
2023/01/05 08:41:19;;;;;;;0.50;0.50;;;9.30;99.90;;;;;;5077946;28;20315;-50
2023/01/05 08:43:50;;;;;;;0.50;0.50;;;9.30;99.90;;;;;;5055373;28;20225;-51
2023/01/05 08:46:17;;;;;;;0.60;0.60;;;9.40;99.90;;;;;;5076658;28;20203;-50
2023/01/05 08:48:44;;;;;;;0.87;0.87;;;9.40;99.90;;;;;;5065420;28;20250;-50
2023/01/05 08:51:11;;;;;;;1.23;0.73;;;9.50;99.90;;;;;;5078267;28;20665;-51
2023/01/05 08:53:38;;;;;;;0.90;0.90;;;9.40;99.90;;;;;;5070830;28;20212;-52
2023/01/05 08:56:07;;;;;;;0.63;0.60;;;9.50;99.90;;;;;;5071713;28;20204;-51
2023/01/05 08:58:34;;;;;;;1.00;1.00;;;9.60;99.90;;;;;;5071650;28;20200;-51
2023/01/05 09:01:01;;;;;;;1.80;1.23;;;9.60;99.90;;;;;;5071795;28;20220;-50
2023/01/05 09:03:27;;;;;;;2.13;1.93;;;9.60;99.90;;;;;;5062116;28;20294;-53
2023/01/05 09:05:58;;;;;;;0.83;0.80;;;9.60;99.90;;;;;;5071559;28;20619;-51
2023/01/05 09:08:25;;;;;;;3.90;0.60;;;9.60;99.90;;;;;;5071597;28;20204;-51
2023/01/05 09:10:52;;;;;;;0.75;0.75;;;9.50;99.90;;;;;;5070039;28;20438;-52
2023/01/05 09:13:20;;;;;;;2.30;1.33;;;9.60;99.90;;;;;;5071514;28;20232;-50
2023/01/05 09:15:47;;;;;;;0.83;0.80;;;9.60;99.90;;;;;;5071491;28;20289;-51
2023/01/05 09:18:14;;;;;;;1.20;0.80;;;9.60;99.90;;;;;;5069139;28;20203;-52
2023/01/05 09:20:41;;;;;;;0.57;0.50;;;9.70;99.90;;;;;;5063338;28;20285;-49
2023/01/05 09:23:08;;;;;;;0.33;0.33;;;9.70;99.90;;;;;;5068809;28;20203;-52
2023/01/05 09:25:35;;;;;;;0.70;0.50;;;9.80;99.90;;;;;;5075424;28;20203;-51
2023/01/05 09:28:02;;;;;;;0.40;0.40;;;9.90;99.90;;;;;;5073108;28;20246;-50
2023/01/05 09:30:30;;;;;;;0.50;0.50;;;9.90;99.90;;;;;;5074157;28;20660;-51
2023/01/05 09:32:57;;;;;;;1.13;0.60;;;9.90;99.90;;;;;;5063350;28;20223;-52
2023/01/05 09:35:24;;;;;;;0.60;0.60;;;9.80;99.90;;;;;;5072054;28;20260;-53
2023/01/05 09:37:51;;;;;;;0.70;0.70;;;9.90;99.90;;;;;;5071347;28;20208;-52
2023/01/05 09:40:19;;;;;;;1.07;1.00;;;9.90;99.90;;;;;;5078346;28;20266;-53
2023/01/05 09:42:47;;;;;;;3.57;1.00;;;9.80;99.90;;;;;;5073359;28;20269;-52
2023/01/05 09:45:27;;;;;;;0.63;0.50;;;9.80;99.90;;;;;;5072763;28;20638;-51
2023/01/05 09:47:59;;;;;;;0.70;0.70;;;9.80;99.90;;;;;;5068169;28;20204;-51
2023/01/05 09:50:29;;;;;;;1.57;0.60;;;9.70;99.90;;;;;;5073529;28;20223;-52
2023/01/05 09:52:58;;;;;;;4.00;0.73;;;9.70;99.90;;;;;;5069778;28;20302;-52
2023/01/05 09:55:27;;;;;;;0.80;0.80;;;9.70;99.90;;;;;;5069602;28;20214;-52
2023/01/05 09:57:58;;;;;;;2.27;0.83;;;9.80;99.90;;;;;;5076879;28;20199;-51
2023/01/05 10:00:27;;;;;;;1.30;1.27;;;9.80;99.90;;;;;;5063358;28;20266;-53
2023/01/05 10:02:59;;;;;;;0.70;0.70;;;9.90;99.90;;;;;;5052817;28;20192;-52
2023/01/05 10:05:28;;;;;;;1.57;1.47;;;10.00;99.90;;;;;;5068586;28;20207;-51
2023/01/05 10:08:01;;;;;;;1.20;0.97;;;10.00;99.90;;;;;;5058998;28;20222;-52
2023/01/05 10:10:43;;;;;;;1.23;0.47;;;10.00;99.90;;;;;;5070729;28;20716;-52
2023/01/05 10:13:23;;;;;;;1.07;0.80;;;9.90;99.90;;;;;;5071009;28;20225;-52
2023/01/05 10:15:53;;;;;;;0.80;0.60;;;9.90;99.90;;;;;;5070811;28;20220;-52
2023/01/05 10:18:25;;;;;;;0.60;0.60;;;9.90;99.90;;;;;;5070453;28;20206;-52
2023/01/05 10:21:06;;;;;;;2.57;0.80;;;9.90;99.90;;;;;;5062105;28;20215;-52
2023/01/05 10:23:49;;;;;;;0.60;0.60;;;9.90;99.90;;;;;;5071057;28;20208;-51
2023/01/05 10:26:24;;;;;;;0.67;0.60;;;10.10;99.90;;;;;;5070764;28;20607;-52
2023/01/05 10:28:57;;;;;;;0.60;0.60;;;10.20;99.90;;;;;;5070726;28;20366;-53
2023/01/05 10:31:31;;;;;;;1.43;0.80;;;10.10;99.90;;;;;;5062244;28;20317;-52
2023/01/05 10:34:04;;;;;;;0.80;0.80;;;10.20;99.90;;;;;;5062965;28;20268;-52
2023/01/05 10:36:59;;;;;;;2.43;0.60;;;10.10;99.90;;;;;;5070637;28;20658;-52
2023/01/05 10:39:37;;;;;;;0.40;0.40;;;10.10;99.90;;;;;;5070367;28;20197;-53
2023/01/05 10:42:13;;;;;;;1.33;0.80;;;10.20;99.90;;;;;;5070690;28;20244;-53
2023/01/05 10:45:02;;;;;;;0.90;0.63;;;10.30;99.90;;;;;;5068582;28;20784;-52
2023/01/05 10:47:31;;;;;;;4.00;1.03;;;10.20;99.90;;;;;;5063603;28;20233;-51
2023/01/05 10:50:01;;;;;;;1.20;0.57;;;10.20;99.90;;;;;;5070407;28;20720;-52
2023/01/05 10:52:28;;;;;;;0.73;0.67;;;10.30;99.90;;;;;;5070524;28;20318;-52
2023/01/05 10:54:58;;;;;;;0.70;0.70;;;10.30;99.90;;;;;;5070694;28;20264;-52
2023/01/05 10:57:40;;;;;;;0.50;0.50;;;10.30;99.90;;;;;;5070437;28;20211;-51
2023/01/05 11:00:11;;;;;;;1.03;0.93;;;10.40;99.90;;;;;;5068720;28;20226;-52
2023/01/05 11:02:41;;;;;;;1.33;0.77;;;10.40;99.90;;;;;;5070697;28;20273;-52
2023/01/05 11:05:27;;;;;;;2.40;0.90;;;10.50;99.90;;;;;;5054295;28;20203;-51
2023/01/05 11:07:57;;;;;;;1.33;0.70;;;10.50;99.90;;;;;;5054297;28;20616;-52
2023/01/05 11:10:29;;;;;;;0.60;0.60;;;10.50;99.90;;;;;;5054269;28;20226;-51
2023/01/05 11:13:05;;;;;;;0.80;0.80;;;10.60;99.90;;;;;;5053930;28;20326;-52
2023/01/05 11:15:35;;;;;;;0.63;0.63;;;10.60;99.90;;;;;;5053147;28;20207;-52
2023/01/05 11:18:03;;;;;;;2.57;0.80;;;10.60;99.90;;;;;;5061247;28;20197;-52
2023/01/05 11:20:31;;;;;;;2.20;0.90;;;10.70;99.90;;;;;;5072916;28;20315;-52
2023/01/05 11:22:58;;;;;;;0.60;0.57;;;10.70;99.90;;;;;;5073471;28;20206;-51
2023/01/05 11:25:30;;;;;;;0.90;0.90;;;10.80;99.90;;;;;;5072714;28;20611;-52
2023/01/05 11:28:11;;;;;;;1.20;0.40;;;10.90;99.90;;;;;;5064131;28;20610;-52
2023/01/05 11:30:44;;;;;;;0.40;0.40;;;11.10;99.90;;;;;;5089317;22;20232;-51
2023/01/05 11:33:22;;;;;;;0.60;0.40;;;11.20;99.90;;;;;;5054434;28;20281;-52
2023/01/05 11:35:50;;;;;;;0.40;0.40;;;11.10;99.90;;;;;;5052456;28;20200;-52
2023/01/05 11:38:24;;;;;;;0.60;0.47;;;11.10;99.90;;;;;;5052246;28;20817;-52
2023/01/05 11:40:52;;;;;;;1.03;0.50;;;11.10;99.90;;;;;;5054078;28;20229;-51
2023/01/05 11:43:21;;;;;;;2.90;0.40;;;11.20;99.90;;;;;;5054214;28;20226;-52
2023/01/05 11:45:52;;;;;;;2.53;0.40;;;11.20;99.90;;;;;;5052694;28;20923;-52
2023/01/05 11:48:23;;;;;;;0.83;0.20;;;11.20;99.90;;;;;;5034101;28;20486;-51
2023/01/05 11:50:55;;;;;;;0.47;0.47;;;11.20;99.90;;;;;;5039525;28;20225;-52
2023/01/05 11:53:25;;;;;;;0.43;0.43;;;11.20;99.90;;;;;;5041499;28;20236;-51
2023/01/05 11:56:00;;;;;;;0.50;0.50;;;11.30;99.90;;;;;;5053530;28;20293;-52
2023/01/05 11:58:33;;;;;;;0.40;0.30;;;11.40;99.90;;;;;;5053602;28;20244;-52
2023/01/05 12:01:27;;;;;;;1.73;0.50;;;11.50;99.90;;;;;;5041648;28;20225;-51
2023/01/05 12:04:05;;;;;;;0.40;0.40;;;11.50;99.90;;;;;;5050164;28;20235;-52
2023/01/05 12:06:50;;;;;;;0.40;0.40;;;11.50;99.90;;;;;;5035681;28;20208;-52
2023/01/05 12:09:26;;;;;;;1.70;0.40;;;11.50;99.90;;;;;;5041594;28;20201;-51
2023/01/05 12:12:05;;;;;;;1.33;0.80;;;11.40;99.90;;;;;;5044133;28;20221;-51
2023/01/05 12:14:50;;;;;;;0.87;0.87;;;11.40;99.90;;;;;;5039076;28;20201;-53
2023/01/05 12:17:26;;;;;;;1.53;0.53;;;11.30;99.90;;;;;;5039263;28;20542;-52
2023/01/05 12:20:13;;;;;;;2.27;0.47;;;11.40;99.90;;;;;;5053294;28;20212;-51
2023/01/05 12:23:18;;;;;;;1.80;0.70;;;11.40;99.90;;;;;;5029900;28;20666;-53
2023/01/05 12:25:59;;;;;;;14.37;11.80;;;11.40;99.90;;;;;;5018109;28;20206;-52
2023/01/05 12:28:51;;;;;;;1.90;1.50;;;11.40;99.90;;;;;;5039541;28;20706;-52
2023/01/05 12:31:28;;;;;;;0.87;0.60;;;11.50;99.90;;;;;;5042627;28;20228;-52
2023/01/05 12:34:21;;;;;;;2.40;0.73;;;11.50;99.90;;;;;;5040041;28;20726;-52
2023/01/05 12:37:16;;;;;;;2.00;1.33;;;11.60;99.90;;;;;;5032938;28;20209;-52
2023/01/05 12:40:03;;;;;;;3.63;1.43;;;11.70;99.90;;;;;;5041101;28;20209;-52
2023/01/05 12:42:57;;;;;;;0.90;0.90;;;11.70;99.90;;;;;;5052894;28;20205;-52
2023/01/05 12:45:46;;;;;;;0.77;0.60;;;11.70;99.90;;;;;;5036828;28;20297;-52
2023/01/05 12:48:17;;;;;;;0.60;0.60;;;11.80;99.90;;;;;;5020445;28;20201;-51
2023/01/05 12:50:49;;;;;;;1.10;0.80;;;11.80;99.90;;;;;;5032751;28;20295;-51
2023/01/05 12:53:25;;;;;;;0.57;0.50;;;11.90;99.90;;;;;;5031596;28;20226;-52
2023/01/05 12:55:57;;;;;;;0.67;0.50;;;11.90;99.90;;;;;;5043919;28;20698;-51
2023/01/05 12:58:30;;;;;;;0.50;0.47;;;11.90;99.90;;;;;;5052595;28;20209;-51
2023/01/05 13:00:59;;;;;;;0.60;0.60;;;11.90;99.90;;;;;;5048244;28;20228;-52
2023/01/05 13:03:33;;;;;;;0.77;0.30;;;11.90;99.90;;;;;;5032529;28;20212;-52
2023/01/05 13:06:05;;;;;;;0.70;0.40;;;12.00;99.90;;;;;;5032597;28;20726;-51
2023/01/05 13:08:38;;;;;;;0.97;0.20;;;12.00;99.90;;;;;;5032369;28;20263;-52
2023/01/05 13:11:11;;;;;;;0.57;0.40;;;12.10;99.90;;;;;;5038542;28;20222;-52
2023/01/05 13:13:45;;;;;;;0.30;0.30;;;12.20;99.90;;;;;;5049827;28;20753;-51
2023/01/05 13:16:17;;;;;;;0.57;0.33;;;12.20;99.90;;;;;;5052339;28;20204;-52
2023/01/05 13:18:48;;;;;;;0.20;0.20;;;12.20;99.90;;;;;;5041400;28;20564;-51
2023/01/05 13:21:16;;;;;;;0.27;0.27;;;12.20;99.90;;;;;;5032445;28;20224;-52
2023/01/05 13:23:47;;;;;;;0.83;0.40;;;12.20;99.90;;;;;;5031676;28;20209;-53
2023/01/05 13:26:16;;;;;;;2.67;0.90;;;12.20;99.90;;;;;;5035856;28;20697;-52
2023/01/05 13:28:48;;;;;;;0.27;0.27;;;12.30;99.90;;;;;;5043349;28;20808;-52
2023/01/05 13:31:43;;;;;;;0.70;0.50;;;12.20;99.90;;;;;;5051967;28;20236;-52
2023/01/05 13:34:51;;;;;;;0.50;0.50;;;12.30;99.90;;;;;;5051995;28;20224;-52
2023/01/05 13:37:43;;;;;;;0.63;0.40;;;12.30;99.90;;;;;;4965762;28;20571;-52
2023/01/05 13:40:39;;;;;;;1.70;0.60;;;12.30;99.90;;;;;;5012378;28;20223;-52
2023/01/05 13:43:27;;;;;;;0.67;0.43;;;12.40;99.90;;;;;;5036506;28;20232;-52
2023/01/05 13:46:26;;;;;;;0.83;0.50;;;12.30;99.90;;;;;;5051608;28;20196;-52
2023/01/05 13:49:18;;;;;;;0.80;0.60;;;12.30;99.90;;;;;;5051663;28;20294;-51